sensor_id;sensor_type;location;lat;lon;timestamp;temperature;humidity
26721;HTU21D;15950;51.112;6.966;2023-04-03T00:00:11;3.89;74.81
26721;HTU21D;15950;51.112;6.966;2023-04-03T00:03:10;3.77;75.21
26721;HTU21D;15950;51.112;6.966;2023-04-03T00:06:11;3.70;75.80
26721;HTU21D;15950;51.112;6.966;2023-04-03T00:09:10;3.32;76.68
26721;HTU21D;15950;51.112;6.966;2023-04-03T00:12:10;3.39;76.92
26721;HTU21D;15950;51.112;6.966;2023-04-03T00:15:11;3.51;76.80
26721;HTU21D;15950;51.112;6.966;2023-04-03T00:18:10;3.70;76.28
26721;HTU21D;15950;51.112;6.966;2023-04-03T00:21:13;3.57;76.11
26721;HTU21D;15950;51.112;6.966;2023-04-03T00:24:10;3.08;77.08
26721;HTU21D;15950;51.112;6.966;2023-04-03T00:27:10;3.07;77.53
26721;HTU21D;15950;51.112;6.966;2023-04-03T00:30:14;3.05;77.72
26721;HTU21D;15950;51.112;6.966;2023-04-03T00:33:12;2.98;77.82
26721;HTU21D;15950;51.112;6.966;2023-04-03T00:36:12;2.89;77.96
26721;HTU21D;15950;51.112;6.966;2023-04-03T00:39:10;2.78;78.88
26721;HTU21D;15950;51.112;6.966;2023-04-03T00:42:10;2.78;79.05
26721;HTU21D;15950;51.112;6.966;2023-04-03T00:48:18;2.53;79.85
26721;HTU21D;15950;51.112;6.966;2023-04-03T00:51:20;2.50;80.17
26721;HTU21D;15950;51.112;6.966;2023-04-03T00:54:10;2.60;79.85
26721;HTU21D;15950;51.112;6.966;2023-04-03T00:57:11;2.68;79.55
26721;HTU21D;15950;51.112;6.966;2023-04-03T01:00:13;2.66;79.29
26721;HTU21D;15950;51.112;6.966;2023-04-03T01:03:10;2.65;79.24
26721;HTU21D;15950;51.112;6.966;2023-04-03T01:06:10;2.60;79.20
26721;HTU21D;15950;51.112;6.966;2023-04-03T01:09:10;2.58;79.40
26721;HTU21D;15950;51.112;6.966;2023-04-03T01:12:20;2.45;79.72
26721;HTU21D;15950;51.112;6.966;2023-04-03T01:18:10;2.39;80.15
26721;HTU21D;15950;51.112;6.966;2023-04-03T01:27:11;2.25;80.69
26721;HTU21D;15950;51.112;6.966;2023-04-03T01:30:11;2.27;80.61
26721;HTU21D;15950;51.112;6.966;2023-04-03T01:33:10;2.36;80.33
26721;HTU21D;15950;51.112;6.966;2023-04-03T01:36:25;2.36;80.21
26721;HTU21D;15950;51.112;6.966;2023-04-03T01:39:11;2.38;80.10
26721;HTU21D;15950;51.112;6.966;2023-04-03T01:42:10;2.32;79.90
26721;HTU21D;15950;51.112;6.966;2023-04-03T01:45:11;2.46;79.69
26721;HTU21D;15950;51.112;6.966;2023-04-03T01:48:10;2.55;79.72
26721;HTU21D;15950;51.112;6.966;2023-04-03T01:51:10;2.41;79.59
26721;HTU21D;15950;51.112;6.966;2023-04-03T01:54:10;2.26;79.88
26721;HTU21D;15950;51.112;6.966;2023-04-03T01:57:10;2.25;80.17
26721;HTU21D;15950;51.112;6.966;2023-04-03T02:00:11;2.26;80.59
26721;HTU21D;15950;51.112;6.966;2023-04-03T02:03:10;2.14;80.72
26721;HTU21D;15950;51.112;6.966;2023-04-03T02:06:10;2.16;80.79
26721;HTU21D;15950;51.112;6.966;2023-04-03T02:09:10;2.34;80.39
26721;HTU21D;15950;51.112;6.966;2023-04-03T02:12:10;2.20;80.38
26721;HTU21D;15950;51.112;6.966;2023-04-03T02:15:10;2.19;80.28
26721;HTU21D;15950;51.112;6.966;2023-04-03T02:18:10;2.26;80.20
26721;HTU21D;15950;51.112;6.966;2023-04-03T02:21:10;2.37;80.15
26721;HTU21D;15950;51.112;6.966;2023-04-03T02:24:10;2.50;79.80
26721;HTU21D;15950;51.112;6.966;2023-04-03T02:27:10;2.53;79.29
26721;HTU21D;15950;51.112;6.966;2023-04-03T02:30:11;2.33;79.20
26721;HTU21D;15950;51.112;6.966;2023-04-03T02:33:10;2.50;79.30
26721;HTU21D;15950;51.112;6.966;2023-04-03T02:36:10;2.31;79.36
26721;HTU21D;15950;51.112;6.966;2023-04-03T02:39:10;2.32;79.60
26721;HTU21D;15950;51.112;6.966;2023-04-03T02:42:10;2.31;79.77
26721;HTU21D;15950;51.112;6.966;2023-04-03T02:45:10;2.31;79.56
26721;HTU21D;15950;51.112;6.966;2023-04-03T02:48:10;2.27;79.64
26721;HTU21D;15950;51.112;6.966;2023-04-03T02:51:10;2.23;79.90
26721;HTU21D;15950;51.112;6.966;2023-04-03T02:54:10;2.11;80.01
26721;HTU21D;15950;51.112;6.966;2023-04-03T02:57:10;2.21;79.78
26721;HTU21D;15950;51.112;6.966;2023-04-03T03:00:11;2.19;79.85
26721;HTU21D;15950;51.112;6.966;2023-04-03T03:03:10;2.19;79.94
26721;HTU21D;15950;51.112;6.966;2023-04-03T03:06:13;2.05;80.20
26721;HTU21D;15950;51.112;6.966;2023-04-03T03:09:10;2.07;80.36
26721;HTU21D;15950;51.112;6.966;2023-04-03T03:12:10;2.07;80.45
26721;HTU21D;15950;51.112;6.966;2023-04-03T03:15:11;2.04;80.33
26721;HTU21D;15950;51.112;6.966;2023-04-03T03:18:10;2.01;80.60
26721;HTU21D;15950;51.112;6.966;2023-04-03T03:21:10;2.05;80.55
26721;HTU21D;15950;51.112;6.966;2023-04-03T03:24:10;1.94;80.67
26721;HTU21D;15950;51.112;6.966;2023-04-03T03:27:10;1.92;80.54
26721;HTU21D;15950;51.112;6.966;2023-04-03T03:30:11;1.93;80.46
26721;HTU21D;15950;51.112;6.966;2023-04-03T03:33:10;1.94;80.53
26721;HTU21D;15950;51.112;6.966;2023-04-03T03:36:10;1.93;80.45
26721;HTU21D;15950;51.112;6.966;2023-04-03T03:39:10;1.92;80.36
26721;HTU21D;15950;51.112;6.966;2023-04-03T03:42:10;1.86;80.28
26721;HTU21D;15950;51.112;6.966;2023-04-03T03:45:10;1.87;80.33
26721;HTU21D;15950;51.112;6.966;2023-04-03T03:48:10;1.83;80.38
26721;HTU21D;15950;51.112;6.966;2023-04-03T03:51:10;1.86;80.24
26721;HTU21D;15950;51.112;6.966;2023-04-03T03:54:11;1.84;80.14
26721;HTU21D;15950;51.112;6.966;2023-04-03T03:57:10;1.91;80.04
26721;HTU21D;15950;51.112;6.966;2023-04-03T04:00:11;1.86;79.98
26721;HTU21D;15950;51.112;6.966;2023-04-03T04:03:10;1.89;79.85
26721;HTU21D;15950;51.112;6.966;2023-04-03T04:06:10;1.93;79.82
26721;HTU21D;15950;51.112;6.966;2023-04-03T04:09:10;1.86;79.69
26721;HTU21D;15950;51.112;6.966;2023-04-03T04:12:10;1.87;79.56
26721;HTU21D;15950;51.112;6.966;2023-04-03T04:15:10;1.87;79.49
26721;HTU21D;15950;51.112;6.966;2023-04-03T04:18:10;1.92;79.37
26721;HTU21D;15950;51.112;6.966;2023-04-03T04:21:10;1.87;79.57
26721;HTU21D;15950;51.112;6.966;2023-04-03T04:24:10;1.88;79.50
26721;HTU21D;15950;51.112;6.966;2023-04-03T04:27:10;1.85;79.48
26721;HTU21D;15950;51.112;6.966;2023-04-03T04:30:11;1.87;79.38
26721;HTU21D;15950;51.112;6.966;2023-04-03T04:33:11;1.84;79.29
26721;HTU21D;15950;51.112;6.966;2023-04-03T04:36:10;1.87;79.31
26721;HTU21D;15950;51.112;6.966;2023-04-03T04:39:10;1.79;79.27
26721;HTU21D;15950;51.112;6.966;2023-04-03T04:42:10;1.93;79.17
26721;HTU21D;15950;51.112;6.966;2023-04-03T04:45:11;1.82;79.17
26721;HTU21D;15950;51.112;6.966;2023-04-03T04:48:10;1.82;79.17
26721;HTU21D;15950;51.112;6.966;2023-04-03T04:51:11;1.81;79.07
26721;HTU21D;15950;51.112;6.966;2023-04-03T04:54:10;1.85;79.17
26721;HTU21D;15950;51.112;6.966;2023-04-03T04:57:10;1.90;79.24
26721;HTU21D;15950;51.112;6.966;2023-04-03T05:00:11;1.78;79.27
26721;HTU21D;15950;51.112;6.966;2023-04-03T05:03:10;1.81;79.33
26721;HTU21D;15950;51.112;6.966;2023-04-03T05:06:10;1.80;79.34
26721;HTU21D;15950;51.112;6.966;2023-04-03T05:09:10;1.82;79.49
26721;HTU21D;15950;51.112;6.966;2023-04-03T05:12:10;1.72;79.53
26721;HTU21D;15950;51.112;6.966;2023-04-03T05:15:10;1.67;79.61
26721;HTU21D;15950;51.112;6.966;2023-04-03T05:18:10;1.75;79.48
26721;HTU21D;15950;51.112;6.966;2023-04-03T05:21:10;1.85;79.28
26721;HTU21D;15950;51.112;6.966;2023-04-03T05:24:10;1.82;79.43
26721;HTU21D;15950;51.112;6.966;2023-04-03T05:27:10;1.82;79.25
26721;HTU21D;15950;51.112;6.966;2023-04-03T05:30:11;1.86;79.06
26721;HTU21D;15950;51.112;6.966;2023-04-03T05:33:10;1.90;79.08
26721;HTU21D;15950;51.112;6.966;2023-04-03T05:36:10;1.88;79.01
26721;HTU21D;15950;51.112;6.966;2023-04-03T05:39:10;1.90;78.95
26721;HTU21D;15950;51.112;6.966;2023-04-03T05:42:10;2.00;78.69
26721;HTU21D;15950;51.112;6.966;2023-04-03T05:45:11;2.02;78.61
26721;HTU21D;15950;51.112;6.966;2023-04-03T05:48:10;1.96;78.72
26721;HTU21D;15950;51.112;6.966;2023-04-03T05:51:34;1.96;78.82
26721;HTU21D;15950;51.112;6.966;2023-04-03T05:54:17;2.10;78.66
26721;HTU21D;15950;51.112;6.966;2023-04-03T05:57:10;2.12;78.56
26721;HTU21D;15950;51.112;6.966;2023-04-03T06:00:13;2.17;78.33
26721;HTU21D;15950;51.112;6.966;2023-04-03T06:03:11;2.28;78.12
26721;HTU21D;15950;51.112;6.966;2023-04-03T06:06:13;2.41;77.81
26721;HTU21D;15950;51.112;6.966;2023-04-03T06:09:10;2.51;77.58
26721;HTU21D;15950;51.112;6.966;2023-04-03T06:12:10;2.59;77.17
26721;HTU21D;15950;51.112;6.966;2023-04-03T06:15:10;2.55;76.94
26721;HTU21D;15950;51.112;6.966;2023-04-03T06:18:10;2.89;76.73
26721;HTU21D;15950;51.112;6.966;2023-04-03T06:21:10;2.83;75.92
26721;HTU21D;15950;51.112;6.966;2023-04-03T06:24:14;2.96;75.91
26721;HTU21D;15950;51.112;6.966;2023-04-03T06:27:11;2.90;75.49
26721;HTU21D;15950;51.112;6.966;2023-04-03T06:30:11;3.08;75.17
26721;HTU21D;15950;51.112;6.966;2023-04-03T06:33:10;3.32;74.86
26721;HTU21D;15950;51.112;6.966;2023-04-03T06:36:11;3.41;74.39
26721;HTU21D;15950;51.112;6.966;2023-04-03T06:39:15;3.46;74.07
26721;HTU21D;15950;51.112;6.966;2023-04-03T06:42:10;3.48;73.58
26721;HTU21D;15950;51.112;6.966;2023-04-03T06:45:10;3.73;73.68
26721;HTU21D;15950;51.112;6.966;2023-04-03T06:48:10;3.72;73.11
26721;HTU21D;15950;51.112;6.966;2023-04-03T06:54:10;3.72;72.20
26721;HTU21D;15950;51.112;6.966;2023-04-03T06:57:10;3.97;72.03
26721;HTU21D;15950;51.112;6.966;2023-04-03T07:00:11;3.95;71.69
26721;HTU21D;15950;51.112;6.966;2023-04-03T07:03:10;4.00;71.42
26721;HTU21D;15950;51.112;6.966;2023-04-03T07:06:12;4.34;71.15
26721;HTU21D;15950;51.112;6.966;2023-04-03T07:09:10;4.41;70.27
26721;HTU21D;15950;51.112;6.966;2023-04-03T07:12:10;4.75;69.94
26721;HTU21D;15950;51.112;6.966;2023-04-03T07:15:10;4.74;69.04
26721;HTU21D;15950;51.112;6.966;2023-04-03T07:18:10;4.47;68.03
26721;HTU21D;15950;51.112;6.966;2023-04-03T07:21:10;4.47;67.69
26721;HTU21D;15950;51.112;6.966;2023-04-03T07:24:11;4.71;67.72
26721;HTU21D;15950;51.112;6.966;2023-04-03T07:27:10;4.76;67.47
26721;HTU21D;15950;51.112;6.966;2023-04-03T07:30:11;5.23;67.01
26721;HTU21D;15950;51.112;6.966;2023-04-03T07:33:10;4.77;65.46
26721;HTU21D;15950;51.112;6.966;2023-04-03T07:36:14;4.98;64.88
26721;HTU21D;15950;51.112;6.966;2023-04-03T07:39:10;5.39;65.30
26721;HTU21D;15950;51.112;6.966;2023-04-03T07:42:10;5.17;64.18
26721;HTU21D;15950;51.112;6.966;2023-04-03T07:45:10;5.67;64.36
26721;HTU21D;15950;51.112;6.966;2023-04-03T07:48:11;5.50;63.15
26721;HTU21D;15950;51.112;6.966;2023-04-03T07:51:10;5.46;62.25
26721;HTU21D;15950;51.112;6.966;2023-04-03T07:54:10;5.20;61.74
26721;HTU21D;15950;51.112;6.966;2023-04-03T07:57:10;5.20;61.20
26721;HTU21D;15950;51.112;6.966;2023-04-03T08:00:12;5.78;60.89
26721;HTU21D;15950;51.112;6.966;2023-04-03T08:03:11;5.63;59.99
26721;HTU21D;15950;51.112;6.966;2023-04-03T08:06:10;5.82;58.96
26721;HTU21D;15950;51.112;6.966;2023-04-03T08:09:10;6.10;59.00
26721;HTU21D;15950;51.112;6.966;2023-04-03T08:12:10;5.97;58.20
26721;HTU21D;15950;51.112;6.966;2023-04-03T08:15:10;6.33;57.59
26721;HTU21D;15950;51.112;6.966;2023-04-03T08:18:10;6.47;56.56
26721;HTU21D;15950;51.112;6.966;2023-04-03T08:21:11;6.15;55.66
26721;HTU21D;15950;51.112;6.966;2023-04-03T08:24:10;6.54;54.81
26721;HTU21D;15950;51.112;6.966;2023-04-03T08:27:10;6.91;54.60
26721;HTU21D;15950;51.112;6.966;2023-04-03T08:30:10;6.42;52.30
26721;HTU21D;15950;51.112;6.966;2023-04-03T08:33:10;6.39;50.92
26721;HTU21D;15950;51.112;6.966;2023-04-03T08:36:17;6.47;50.21
26721;HTU21D;15950;51.112;6.966;2023-04-03T08:39:11;6.54;49.42
26721;HTU21D;15950;51.112;6.966;2023-04-03T08:48:20;6.78;47.94
26721;HTU21D;15950;51.112;6.966;2023-04-03T08:51:17;6.78;47.33
26721;HTU21D;15950;51.112;6.966;2023-04-03T08:54:25;6.71;46.60
26721;HTU21D;15950;51.112;6.966;2023-04-03T08:57:12;6.97;46.26
26721;HTU21D;15950;51.112;6.966;2023-04-03T09:00:17;7.01;46.19
26721;HTU21D;15950;51.112;6.966;2023-04-03T09:03:16;6.98;45.43
26721;HTU21D;15950;51.112;6.966;2023-04-03T09:06:19;7.00;45.69
26721;HTU21D;15950;51.112;6.966;2023-04-03T09:09:21;7.21;46.07
26721;HTU21D;15950;51.112;6.966;2023-04-03T09:24:12;7.44;46.91
26721;HTU21D;15950;51.112;6.966;2023-04-03T09:27:11;7.54;47.59
26721;HTU21D;15950;51.112;6.966;2023-04-03T09:30:16;7.40;47.50
26721;HTU21D;15950;51.112;6.966;2023-04-03T09:33:11;7.47;47.75
26721;HTU21D;15950;51.112;6.966;2023-04-03T09:36:10;7.20;47.76
26721;HTU21D;15950;51.112;6.966;2023-04-03T09:39:16;7.74;48.39
26721;HTU21D;15950;51.112;6.966;2023-04-03T09:45:21;7.98;47.70
26721;HTU21D;15950;51.112;6.966;2023-04-03T09:51:15;7.60;47.38
26721;HTU21D;15950;51.112;6.966;2023-04-03T09:57:12;7.75;47.74
26721;HTU21D;15950;51.112;6.966;2023-04-03T10:00:25;7.95;47.49
26721;HTU21D;15950;51.112;6.966;2023-04-03T10:06:22;8.10;46.84
26721;HTU21D;15950;51.112;6.966;2023-04-03T10:12:12;7.70;46.38
26721;HTU21D;15950;51.112;6.966;2023-04-03T10:15:14;7.81;46.73
26721;HTU21D;15950;51.112;6.966;2023-04-03T10:27:19;8.05;45.69
26721;HTU21D;15950;51.112;6.966;2023-04-03T10:33:19;8.28;43.42
26721;HTU21D;15950;51.112;6.966;2023-04-03T10:39:23;8.69;41.36
26721;HTU21D;15950;51.112;6.966;2023-04-03T10:42:21;8.83;40.74
26721;HTU21D;15950;51.112;6.966;2023-04-03T10:51:17;8.61;40.81
26721;HTU21D;15950;51.112;6.966;2023-04-03T10:57:11;8.75;41.55
26721;HTU21D;15950;51.112;6.966;2023-04-03T11:00:23;8.84;40.30
26721;HTU21D;15950;51.112;6.966;2023-04-03T11:06:12;8.70;40.05
26721;HTU21D;15950;51.112;6.966;2023-04-03T11:12:15;8.94;40.02
26721;HTU21D;15950;51.112;6.966;2023-04-03T11:15:16;9.17;39.62
26721;HTU21D;15950;51.112;6.966;2023-04-03T11:18:17;8.77;38.57
26721;HTU21D;15950;51.112;6.966;2023-04-03T11:21:21;8.76;38.59
26721;HTU21D;15950;51.112;6.966;2023-04-03T11:27:17;8.71;39.59
26721;HTU21D;15950;51.112;6.966;2023-04-03T11:30:19;8.60;39.64
26721;HTU21D;15950;51.112;6.966;2023-04-03T11:33:19;8.67;39.17
26721;HTU21D;15950;51.112;6.966;2023-04-03T12:21:12;8.81;35.18
26721;HTU21D;15950;51.112;6.966;2023-04-03T12:24:32;9.11;35.50
26721;HTU21D;15950;51.112;6.966;2023-04-03T12:30:23;9.11;35.71
26721;HTU21D;15950;51.112;6.966;2023-04-03T12:33:20;9.06;36.78
26721;HTU21D;15950;51.112;6.966;2023-04-03T12:36:18;8.94;37.27
26721;HTU21D;15950;51.112;6.966;2023-04-03T12:45:19;9.22;39.10
26721;HTU21D;15950;51.112;6.966;2023-04-03T12:48:18;8.97;39.13
26721;HTU21D;15950;51.112;6.966;2023-04-03T12:51:14;9.15;38.73
26721;HTU21D;15950;51.112;6.966;2023-04-03T13:00:19;9.03;37.79
26721;HTU21D;15950;51.112;6.966;2023-04-03T13:03:22;9.05;38.16
26721;HTU21D;15950;51.112;6.966;2023-04-03T13:06:20;9.14;38.42
26721;HTU21D;15950;51.112;6.966;2023-04-03T13:09:22;9.09;38.94
26721;HTU21D;15950;51.112;6.966;2023-04-03T13:12:12;9.02;38.82
26721;HTU21D;15950;51.112;6.966;2023-04-03T13:21:17;9.18;38.47
26721;HTU21D;15950;51.112;6.966;2023-04-03T13:24:11;9.36;39.39
26721;HTU21D;15950;51.112;6.966;2023-04-03T13:27:13;9.13;39.16
26721;HTU21D;15950;51.112;6.966;2023-04-03T13:33:22;9.32;40.02
26721;HTU21D;15950;51.112;6.966;2023-04-03T13:36:23;9.36;39.94
26721;HTU21D;15950;51.112;6.966;2023-04-03T13:48:16;9.40;39.71
26721;HTU21D;15950;51.112;6.966;2023-04-03T13:54:20;9.40;39.32
26721;HTU21D;15950;51.112;6.966;2023-04-03T13:57:14;9.15;38.57
26721;HTU21D;15950;51.112;6.966;2023-04-03T14:06:13;9.21;39.17
26721;HTU21D;15950;51.112;6.966;2023-04-03T14:09:10;9.33;39.41
26721;HTU21D;15950;51.112;6.966;2023-04-03T14:12:21;9.37;38.56
26721;HTU21D;15950;51.112;6.966;2023-04-03T14:15:20;9.48;38.49
26721;HTU21D;15950;51.112;6.966;2023-04-03T14:18:13;9.19;38.27
26721;HTU21D;15950;51.112;6.966;2023-04-03T14:21:15;9.57;39.65
26721;HTU21D;15950;51.112;6.966;2023-04-03T14:24:10;9.45;39.29
26721;HTU21D;15950;51.112;6.966;2023-04-03T14:33:17;9.16;37.69
26721;HTU21D;15950;51.112;6.966;2023-04-03T14:36:15;9.64;38.31
26721;HTU21D;15950;51.112;6.966;2023-04-03T14:39:18;9.52;38.88
26721;HTU21D;15950;51.112;6.966;2023-04-03T14:42:33;9.41;38.41
26721;HTU21D;15950;51.112;6.966;2023-04-03T14:45:12;9.44;39.61
26721;HTU21D;15950;51.112;6.966;2023-04-03T14:48:16;9.48;40.19
26721;HTU21D;15950;51.112;6.966;2023-04-03T14:51:14;9.46;40.04
26721;HTU21D;15950;51.112;6.966;2023-04-03T14:54:14;9.37;39.93
26721;HTU21D;15950;51.112;6.966;2023-04-03T14:57:12;9.27;39.93
26721;HTU21D;15950;51.112;6.966;2023-04-03T15:00:16;9.46;40.15
26721;HTU21D;15950;51.112;6.966;2023-04-03T15:03:16;9.40;40.31
26721;HTU21D;15950;51.112;6.966;2023-04-03T15:06:14;9.31;40.11
26721;HTU21D;15950;51.112;6.966;2023-04-03T15:12:12;9.39;40.19
26721;HTU21D;15950;51.112;6.966;2023-04-03T15:15:10;9.40;40.21
26721;HTU21D;15950;51.112;6.966;2023-04-03T15:18:17;9.35;40.46
26721;HTU21D;15950;51.112;6.966;2023-04-03T15:21:10;9.40;40.86
26721;HTU21D;15950;51.112;6.966;2023-04-03T15:24:10;9.45;40.62
26721;HTU21D;15950;51.112;6.966;2023-04-03T15:27:11;9.50;41.24
26721;HTU21D;15950;51.112;6.966;2023-04-03T15:30:16;9.34;39.97
26721;HTU21D;15950;51.112;6.966;2023-04-03T15:33:10;9.25;38.94
26721;HTU21D;15950;51.112;6.966;2023-04-03T15:36:11;9.40;38.98
26721;HTU21D;15950;51.112;6.966;2023-04-03T15:39:10;9.36;39.35
26721;HTU21D;15950;51.112;6.966;2023-04-03T15:42:10;9.38;39.52
26721;HTU21D;15950;51.112;6.966;2023-04-03T15:45:10;9.26;40.33
26721;HTU21D;15950;51.112;6.966;2023-04-03T15:48:11;9.22;40.44
26721;HTU21D;15950;51.112;6.966;2023-04-03T15:51:10;9.36;40.96
26721;HTU21D;15950;51.112;6.966;2023-04-03T15:54:10;9.28;40.18
26721;HTU21D;15950;51.112;6.966;2023-04-03T15:57:10;9.19;40.52
26721;HTU21D;15950;51.112;6.966;2023-04-03T16:00:10;9.16;40.29
26721;HTU21D;15950;51.112;6.966;2023-04-03T16:03:14;9.24;40.69
26721;HTU21D;15950;51.112;6.966;2023-04-03T16:09:10;9.21;39.88
26721;HTU21D;15950;51.112;6.966;2023-04-03T16:12:10;9.14;39.81
26721;HTU21D;15950;51.112;6.966;2023-04-03T16:15:10;9.06;40.34
26721;HTU21D;15950;51.112;6.966;2023-04-03T16:18:10;9.08;40.49
26721;HTU21D;15950;51.112;6.966;2023-04-03T16:21:10;9.13;40.78
26721;HTU21D;15950;51.112;6.966;2023-04-03T16:24:10;9.17;40.64
26721;HTU21D;15950;51.112;6.966;2023-04-03T16:27:10;9.12;41.26
26721;HTU21D;15950;51.112;6.966;2023-04-03T16:30:10;9.05;41.84
26721;HTU21D;15950;51.112;6.966;2023-04-03T16:33:10;8.84;42.76
26721;HTU21D;15950;51.112;6.966;2023-04-03T16:36:10;8.94;43.33
26721;HTU21D;15950;51.112;6.966;2023-04-03T16:39:10;8.83;43.36
26721;HTU21D;15950;51.112;6.966;2023-04-03T16:42:10;8.92;43.87
26721;HTU21D;15950;51.112;6.966;2023-04-03T16:45:10;8.84;43.71
26721;HTU21D;15950;51.112;6.966;2023-04-03T16:48:10;8.95;43.98
26721;HTU21D;15950;51.112;6.966;2023-04-03T16:51:11;8.81;43.00
26721;HTU21D;15950;51.112;6.966;2023-04-03T16:54:10;8.79;43.25
26721;HTU21D;15950;51.112;6.966;2023-04-03T16:57:10;8.66;43.43
26721;HTU21D;15950;51.112;6.966;2023-04-03T17:00:10;8.68;42.81
26721;HTU21D;15950;51.112;6.966;2023-04-03T17:03:10;8.61;43.30
26721;HTU21D;15950;51.112;6.966;2023-04-03T17:06:12;8.51;43.84
26721;HTU21D;15950;51.112;6.966;2023-04-03T17:09:10;8.45;44.58
26721;HTU21D;15950;51.112;6.966;2023-04-03T17:12:10;8.47;45.14
26721;HTU21D;15950;51.112;6.966;2023-04-03T17:15:10;8.39;45.61
26721;HTU21D;15950;51.112;6.966;2023-04-03T17:18:10;8.39;45.88
26721;HTU21D;15950;51.112;6.966;2023-04-03T17:21:11;8.22;45.93
26721;HTU21D;15950;51.112;6.966;2023-04-03T17:24:11;8.16;46.15
26721;HTU21D;15950;51.112;6.966;2023-04-03T17:27:10;8.13;46.31
26721;HTU21D;15950;51.112;6.966;2023-04-03T17:30:10;8.06;46.64
26721;HTU21D;15950;51.112;6.966;2023-04-03T17:33:10;8.00;47.09
26721;HTU21D;15950;51.112;6.966;2023-04-03T17:36:10;7.88;47.04
26721;HTU21D;15950;51.112;6.966;2023-04-03T17:39:10;7.82;46.78
26721;HTU21D;15950;51.112;6.966;2023-04-03T17:42:10;7.74;46.73
26721;HTU21D;15950;51.112;6.966;2023-04-03T17:45:10;7.64;46.94
26721;HTU21D;15950;51.112;6.966;2023-04-03T17:48:10;7.69;47.30
26721;HTU21D;15950;51.112;6.966;2023-04-03T17:51:12;7.58;47.54
26721;HTU21D;15950;51.112;6.966;2023-04-03T17:54:10;7.50;47.73
26721;HTU21D;15950;51.112;6.966;2023-04-03T17:57:10;7.56;47.88
26721;HTU21D;15950;51.112;6.966;2023-04-03T18:00:10;7.39;47.96
26721;HTU21D;15950;51.112;6.966;2023-04-03T18:03:10;7.40;48.12
26721;HTU21D;15950;51.112;6.966;2023-04-03T18:06:13;7.39;48.41
26721;HTU21D;15950;51.112;6.966;2023-04-03T18:12:10;7.30;49.08
26721;HTU21D;15950;51.112;6.966;2023-04-03T18:15:10;7.39;49.02
26721;HTU21D;15950;51.112;6.966;2023-04-03T18:18:10;7.27;48.83
26721;HTU21D;15950;51.112;6.966;2023-04-03T18:21:11;7.37;48.76
26721;HTU21D;15950;51.112;6.966;2023-04-03T18:24:13;7.26;48.83
26721;HTU21D;15950;51.112;6.966;2023-04-03T18:27:16;7.18;49.13
26721;HTU21D;15950;51.112;6.966;2023-04-03T18:30:12;6.99;49.18
26721;HTU21D;15950;51.112;6.966;2023-04-03T18:33:10;6.82;49.27
26721;HTU21D;15950;51.112;6.966;2023-04-03T18:36:10;7.00;49.21
26721;HTU21D;15950;51.112;6.966;2023-04-03T18:39:10;6.89;49.34
26721;HTU21D;15950;51.112;6.966;2023-04-03T18:42:16;6.81;49.80
26721;HTU21D;15950;51.112;6.966;2023-04-03T18:45:11;6.65;49.92
26721;HTU21D;15950;51.112;6.966;2023-04-03T18:48:10;6.73;50.13
26721;HTU21D;15950;51.112;6.966;2023-04-03T18:51:11;6.58;50.27
26721;HTU21D;15950;51.112;6.966;2023-04-03T18:54:10;6.64;50.35
26721;HTU21D;15950;51.112;6.966;2023-04-03T18:57:10;6.53;50.33
26721;HTU21D;15950;51.112;6.966;2023-04-03T19:00:10;6.57;50.47
26721;HTU21D;15950;51.112;6.966;2023-04-03T19:03:10;6.51;50.36
26721;HTU21D;15950;51.112;6.966;2023-04-03T19:06:10;6.43;50.72
26721;HTU21D;15950;51.112;6.966;2023-04-03T19:09:10;6.51;50.72
26721;HTU21D;15950;51.112;6.966;2023-04-03T19:12:10;6.39;50.87
26721;HTU21D;15950;51.112;6.966;2023-04-03T19:15:14;6.55;51.38
26721;HTU21D;15950;51.112;6.966;2023-04-03T19:18:10;6.24;51.21
26721;HTU21D;15950;51.112;6.966;2023-04-03T19:21:10;6.14;51.33
26721;HTU21D;15950;51.112;6.966;2023-04-03T19:24:11;6.18;51.66
26721;HTU21D;15950;51.112;6.966;2023-04-03T19:27:10;6.25;51.46
26721;HTU21D;15950;51.112;6.966;2023-04-03T19:30:11;6.07;51.66
26721;HTU21D;15950;51.112;6.966;2023-04-03T19:33:10;6.06;51.71
26721;HTU21D;15950;51.112;6.966;2023-04-03T19:36:10;6.03;51.89
26721;HTU21D;15950;51.112;6.966;2023-04-03T19:39:10;6.05;52.13
26721;HTU21D;15950;51.112;6.966;2023-04-03T19:42:10;5.87;52.30
26721;HTU21D;15950;51.112;6.966;2023-04-03T19:45:11;5.97;52.61
26721;HTU21D;15950;51.112;6.966;2023-04-03T19:48:10;5.87;52.70
26721;HTU21D;15950;51.112;6.966;2023-04-03T19:51:10;5.95;53.03
26721;HTU21D;15950;51.112;6.966;2023-04-03T19:54:10;5.77;53.14
26721;HTU21D;15950;51.112;6.966;2023-04-03T19:57:10;5.91;53.26
26721;HTU21D;15950;51.112;6.966;2023-04-03T20:00:10;5.82;53.85
26721;HTU21D;15950;51.112;6.966;2023-04-03T20:03:10;5.68;53.78
26721;HTU21D;15950;51.112;6.966;2023-04-03T20:06:10;5.65;53.96
26721;HTU21D;15950;51.112;6.966;2023-04-03T20:09:10;5.70;54.46
26721;HTU21D;15950;51.112;6.966;2023-04-03T20:12:10;5.52;54.42
26721;HTU21D;15950;51.112;6.966;2023-04-03T20:15:10;5.47;54.70
26721;HTU21D;15950;51.112;6.966;2023-04-03T20:18:12;5.44;54.97
26721;HTU21D;15950;51.112;6.966;2023-04-03T20:21:10;5.40;55.33
26721;HTU21D;15950;51.112;6.966;2023-04-03T20:24:10;5.38;55.33
26721;HTU21D;15950;51.112;6.966;2023-04-03T20:27:10;5.38;55.52
26721;HTU21D;15950;51.112;6.966;2023-04-03T20:30:12;5.32;55.38
26721;HTU21D;15950;51.112;6.966;2023-04-03T20:33:10;5.28;55.27
26721;HTU21D;15950;51.112;6.966;2023-04-03T20:36:10;5.23;55.17
26721;HTU21D;15950;51.112;6.966;2023-04-03T20:39:10;5.14;55.19
26721;HTU21D;15950;51.112;6.966;2023-04-03T20:42:10;5.20;55.18
26721;HTU21D;15950;51.112;6.966;2023-04-03T20:45:10;5.08;55.33
26721;HTU21D;15950;51.112;6.966;2023-04-03T20:48:10;5.11;55.37
26721;HTU21D;15950;51.112;6.966;2023-04-03T20:51:11;5.00;55.39
26721;HTU21D;15950;51.112;6.966;2023-04-03T20:54:10;5.10;55.21
26721;HTU21D;15950;51.112;6.966;2023-04-03T20:57:10;5.00;55.32
26721;HTU21D;15950;51.112;6.966;2023-04-03T21:00:11;5.00;55.29
26721;HTU21D;15950;51.112;6.966;2023-04-03T21:03:10;4.93;55.36
26721;HTU21D;15950;51.112;6.966;2023-04-03T21:24:11;4.60;56.39
26721;HTU21D;15950;51.112;6.966;2023-04-03T21:27:10;4.57;56.52
26721;HTU21D;15950;51.112;6.966;2023-04-03T21:30:10;4.53;56.52
26721;HTU21D;15950;51.112;6.966;2023-04-03T21:33:10;4.52;56.42
26721;HTU21D;15950;51.112;6.966;2023-04-03T21:36:10;4.58;56.53
26721;HTU21D;15950;51.112;6.966;2023-04-03T21:39:10;4.58;56.62
26721;HTU21D;15950;51.112;6.966;2023-04-03T21:42:10;4.67;56.73
26721;HTU21D;15950;51.112;6.966;2023-04-03T21:45:10;4.67;57.03
26721;HTU21D;15950;51.112;6.966;2023-04-03T21:48:10;4.94;57.24
26721;HTU21D;15950;51.112;6.966;2023-04-03T21:51:10;4.89;57.39
26721;HTU21D;15950;51.112;6.966;2023-04-03T21:54:10;4.86;57.87
26721;HTU21D;15950;51.112;6.966;2023-04-03T21:57:10;4.69;58.38
26721;HTU21D;15950;51.112;6.966;2023-04-03T22:00:10;4.89;58.60
26721;HTU21D;15950;51.112;6.966;2023-04-03T22:03:10;5.04;58.87
26721;HTU21D;15950;51.112;6.966;2023-04-03T22:06:11;5.19;58.89
26721;HTU21D;15950;51.112;6.966;2023-04-03T22:09:10;4.91;59.19
26721;HTU21D;15950;51.112;6.966;2023-04-03T22:12:10;4.78;59.66
26721;HTU21D;15950;51.112;6.966;2023-04-03T22:15:10;4.64;59.69